createdAt,value
2023-02-14T00:00:48.892Z,98710.78
2023-02-14T00:03:15.912Z,98696.31
2023-02-14T00:05:42.534Z,98705.25
2023-02-14T00:08:09.076Z,98703.41
2023-02-14T00:10:35.703Z,98699.25
2023-02-14T00:13:02.220Z,98696.72
2023-02-14T00:15:28.774Z,98694.41
2023-02-14T00:17:59.608Z,98693.97
2023-02-14T00:20:27.355Z,98688.81
2023-02-14T00:22:53.952Z,98691.66
2023-02-14T00:25:20.620Z,98676.28
2023-02-14T00:27:47.292Z,98694.50
2023-02-14T00:30:14.198Z,98693.28
2023-02-14T00:32:42.062Z,98688.22
2023-02-14T00:35:10.047Z,98683.41
2023-02-14T00:37:38.257Z,98685.06
2023-02-14T00:40:06.514Z,98685.44
2023-02-14T00:42:33.135Z,98678.44
2023-02-14T00:44:59.723Z,98684.56
2023-02-14T00:47:26.427Z,98671.03
2023-02-14T00:49:53.239Z,98677.03
2023-02-14T00:52:19.854Z,98661.19
2023-02-14T00:54:46.447Z,98675.28
2023-02-14T00:57:13.050Z,98662.94
2023-02-14T00:59:39.601Z,98669.44
2023-02-14T01:02:06.347Z,98652.94
2023-02-14T01:04:33.091Z,98658.44
2023-02-14T01:06:59.642Z,98654.50
2023-02-14T01:09:26.182Z,98651.50
2023-02-14T01:11:52.954Z,98656.28
2023-02-14T01:14:19.535Z,98652.63
2023-02-14T01:16:46.138Z,98650.78
2023-02-14T01:19:13.295Z,98651.50
2023-02-14T01:21:39.902Z,98654.72
2023-02-14T01:24:07.897Z,98654.72
2023-02-14T01:26:35.281Z,98658.59
2023-02-14T01:29:02.787Z,98653.97
2023-02-14T01:31:33.358Z,98642.41
2023-02-14T01:33:59.990Z,98655.00
2023-02-14T01:36:38.710Z,98654.06
2023-02-14T01:39:08.881Z,98645.59
2023-02-14T01:41:37.481Z,98639.72
2023-02-14T01:44:24.246Z,98642.56
2023-02-14T01:46:50.744Z,98647.34
2023-02-14T01:49:21.982Z,98646.75
2023-02-14T01:51:53.073Z,98623.22
2023-02-14T01:54:23.445Z,98640.97
2023-02-14T01:56:56.152Z,98634.03
2023-02-14T01:59:27.241Z,98639.88
2023-02-14T02:01:54.722Z,98635.59
2023-02-14T02:04:30.424Z,98636.06
2023-02-14T02:07:04.021Z,98633.38
2023-02-14T02:09:34.582Z,98638.66
2023-02-14T02:12:02.674Z,98619.81
2023-02-14T02:14:29.656Z,98620.69
2023-02-14T02:17:02.061Z,98616.75
2023-02-14T02:20:05.451Z,98628.69
2023-02-14T02:22:40.715Z,98623.69
2023-02-14T02:25:29.050Z,98629.66
2023-02-14T02:28:07.628Z,98627.34
2023-02-14T02:30:46.422Z,98612.06
2023-02-14T02:33:31.595Z,98612.06
2023-02-14T02:36:23.452Z,98613.84
2023-02-14T02:39:09.636Z,98611.44
2023-02-14T02:41:54.945Z,98612.25
2023-02-14T02:44:44.520Z,98607.72
2023-02-14T02:47:29.844Z,98604.25
2023-02-14T02:50:38.222Z,98595.97
2023-02-14T02:53:22.706Z,98599.06
2023-02-14T02:56:16.828Z,98604.50
2023-02-14T02:59:18.418Z,98598.75
2023-02-14T03:01:52.152Z,98587.25
2023-02-14T03:04:39.550Z,98597.16
2023-02-14T03:07:27.130Z,98601.84
2023-02-14T03:09:57.667Z,98587.41
2023-02-14T03:12:33.508Z,98581.00
2023-02-14T03:15:15.262Z,98590.47
2023-02-14T03:18:13.933Z,98574.69
2023-02-14T03:20:46.093Z,98569.59
2023-02-14T03:23:23.371Z,98555.97
2023-02-14T03:26:05.349Z,98573.25
2023-02-14T03:29:09.213Z,98558.19
2023-02-14T03:31:57.715Z,98591.94
2023-02-14T03:34:51.893Z,98584.38
2023-02-14T03:38:12.564Z,98588.19
2023-02-14T03:40:49.410Z,98533.13
2023-02-14T03:43:21.012Z,98574.56
2023-02-14T03:45:59.029Z,98571.19
2023-02-14T03:48:28.400Z,98571.72
2023-02-14T03:50:57.009Z,98568.31
2023-02-14T03:53:28.336Z,98568.91
2023-02-14T03:56:04.135Z,98573.97
2023-02-14T03:58:34.963Z,98577.97
2023-02-14T04:01:23.496Z,98585.22
2023-02-14T04:03:52.588Z,98572.47
2023-02-14T04:06:20.728Z,98560.88
2023-02-14T04:08:47.251Z,98567.28
2023-02-14T04:11:14.439Z,98562.72
2023-02-14T04:13:41.078Z,98542.97
2023-02-14T04:16:07.926Z,98562.94
2023-02-14T04:18:53.367Z,98540.50
2023-02-14T04:21:20.178Z,98534.06
2023-02-14T04:23:46.691Z,98542.50
2023-02-14T04:26:13.256Z,98557.34
2023-02-14T04:28:39.900Z,98560.53
2023-02-14T04:31:07.116Z,98550.78
2023-02-14T04:33:33.832Z,98555.03
2023-02-14T04:36:00.865Z,98552.19
2023-02-14T04:38:27.532Z,98556.88
2023-02-14T04:40:54.167Z,98547.72
2023-02-14T04:43:20.783Z,98538.88
2023-02-14T04:45:47.754Z,98551.69
2023-02-14T04:48:14.594Z,98537.59
2023-02-14T04:50:41.271Z,98540.56
2023-02-14T04:53:07.956Z,98540.78
2023-02-14T04:55:34.540Z,98536.78
2023-02-14T04:58:01.081Z,98540.88
2023-02-14T05:00:27.729Z,98542.03
2023-02-14T05:02:54.605Z,98546.50
2023-02-14T05:05:22.338Z,98537.06
2023-02-14T05:07:48.969Z,98534.16
2023-02-14T05:10:15.581Z,98518.69
2023-02-14T05:12:42.194Z,98531.06
2023-02-14T05:15:09.605Z,98508.16
2023-02-14T05:17:36.300Z,98522.56
2023-02-14T05:20:05.862Z,98528.53
2023-02-14T05:22:32.420Z,98523.84
2023-02-14T05:24:59.040Z,98525.53
2023-02-14T05:27:25.584Z,98504.38
2023-02-14T05:29:52.299Z,98523.03
2023-02-14T05:32:18.869Z,98528.06
2023-02-14T05:34:45.367Z,98530.81
2023-02-14T05:37:12.084Z,98534.97
2023-02-14T05:39:38.632Z,98534.41
2023-02-14T05:42:05.239Z,98535.47
2023-02-14T05:44:31.772Z,98549.50
2023-02-14T05:46:58.321Z,98547.72
2023-02-14T05:49:24.860Z,98550.47
2023-02-14T05:51:51.561Z,98547.44
2023-02-14T05:54:18.167Z,98543.13
2023-02-14T05:56:44.704Z,98543.56
2023-02-14T05:59:11.264Z,98535.75
2023-02-14T06:01:37.803Z,98537.47
2023-02-14T06:04:04.392Z,98537.22
2023-02-14T06:06:30.986Z,98540.19
2023-02-14T06:08:57.529Z,98550.91
2023-02-14T06:11:24.041Z,98547.81
2023-02-14T06:13:50.571Z,98552.00
2023-02-14T06:16:17.138Z,98542.16
2023-02-14T06:18:44.408Z,98539.66
2023-02-14T06:21:10.862Z,98549.38
2023-02-14T06:23:37.423Z,98542.53
2023-02-14T06:26:04.116Z,98540.38
2023-02-14T06:28:30.725Z,98539.50
2023-02-14T06:30:57.414Z,98554.91
2023-02-14T06:33:24.176Z,98540.22
2023-02-14T06:35:50.775Z,98534.59
2023-02-14T06:38:17.323Z,98533.84
2023-02-14T06:40:43.903Z,98524.97
2023-02-14T06:43:11.491Z,98530.88
2023-02-14T06:45:38.169Z,98524.13
2023-02-14T06:48:04.914Z,98523.47
2023-02-14T06:50:31.436Z,98514.13
2023-02-14T06:52:57.994Z,98517.63
2023-02-14T06:55:24.654Z,98513.16
2023-02-14T06:57:51.259Z,98508.59
2023-02-14T07:00:18.576Z,98518.47
2023-02-14T07:02:45.126Z,98521.81
2023-02-14T07:05:11.832Z,98521.31
2023-02-14T07:07:38.423Z,98499.63
2023-02-14T07:10:05.592Z,98523.25
2023-02-14T07:12:32.242Z,98514.59
2023-02-14T07:14:58.778Z,98525.75
2023-02-14T07:17:25.425Z,98523.91
2023-02-14T07:19:51.984Z,98527.81
2023-02-14T07:22:18.554Z,98527.59
2023-02-14T07:24:45.120Z,98525.63
2023-02-14T07:27:11.708Z,98524.63
2023-02-14T07:29:38.250Z,98519.97
2023-02-14T07:32:05.156Z,98510.56
2023-02-14T07:34:31.751Z,98518.22
2023-02-14T07:36:58.458Z,98515.84
2023-02-14T07:39:25.025Z,98518.09
2023-02-14T07:41:51.745Z,98493.97
2023-02-14T07:44:18.304Z,98487.56
2023-02-14T07:46:44.994Z,98483.59
2023-02-14T07:49:12.051Z,98485.84
2023-02-14T07:51:38.625Z,98484.19
2023-02-14T07:54:05.204Z,98459.75
2023-02-14T07:56:31.937Z,98463.28
2023-02-14T07:58:58.613Z,98453.59
2023-02-14T08:01:25.338Z,98451.84
2023-02-14T08:03:52.717Z,98460.34
2023-02-14T08:06:19.617Z,98441.09
2023-02-14T08:08:46.956Z,98440.53
2023-02-14T08:11:33.927Z,98433.88
2023-02-14T08:14:00.831Z,98440.28
2023-02-14T08:16:27.370Z,98430.47
2023-02-14T08:18:54.114Z,98443.22
2023-02-14T08:21:21.070Z,98432.41
2023-02-14T08:23:47.706Z,98429.38
2023-02-14T08:26:14.526Z,98430.00
2023-02-14T08:28:41.127Z,98434.00
2023-02-14T08:31:07.695Z,98434.19
2023-02-14T08:33:34.289Z,98431.88
2023-02-14T08:36:01.000Z,98439.56
2023-02-14T08:38:27.513Z,98428.13
2023-02-14T08:40:54.092Z,98428.94
2023-02-14T08:43:20.733Z,98460.56
2023-02-14T08:45:48.556Z,98465.13
2023-02-14T08:48:15.121Z,98459.56
2023-02-14T08:50:41.878Z,98462.59
2023-02-14T08:53:10.639Z,98462.09
2023-02-14T08:55:38.019Z,98474.88
2023-02-14T08:58:05.297Z,98462.94
2023-02-14T09:00:32.897Z,98475.13
2023-02-14T09:02:59.698Z,98463.94
2023-02-14T09:05:26.585Z,98465.47
2023-02-14T09:07:55.913Z,98481.19
2023-02-14T09:10:24.141Z,98451.72
2023-02-14T09:12:50.856Z,98477.56
2023-02-14T09:15:17.451Z,98480.50
2023-02-14T09:17:44.458Z,98482.78
2023-02-14T09:20:12.891Z,98497.94
2023-02-14T09:22:39.746Z,98494.16
2023-02-14T09:25:06.881Z,98476.66
2023-02-14T09:27:33.545Z,98480.63
2023-02-14T09:30:01.440Z,98465.47
2023-02-14T09:32:29.334Z,98486.97
2023-02-14T09:34:56.035Z,98486.94
2023-02-14T09:37:22.640Z,98486.03
2023-02-14T09:39:49.186Z,98496.38
2023-02-14T09:42:22.559Z,98490.81
2023-02-14T09:44:51.829Z,98481.28
2023-02-14T09:47:52.023Z,98476.50
2023-02-14T09:50:24.822Z,98471.38
2023-02-14T09:52:57.855Z,98463.00
2023-02-14T09:55:31.100Z,98474.16
2023-02-14T09:58:15.138Z,98467.06
2023-02-14T10:00:44.430Z,98475.75
2023-02-14T10:03:38.432Z,98463.09
2023-02-14T10:06:18.665Z,98466.63
2023-02-14T10:09:07.854Z,98464.22
2023-02-14T10:11:35.166Z,98463.09
2023-02-14T10:14:25.991Z,98460.69
2023-02-14T10:17:19.620Z,98462.31
2023-02-14T10:19:57.388Z,98453.53
2023-02-14T10:22:38.467Z,98457.56
2023-02-14T10:25:21.010Z,98459.16
2023-02-14T10:27:48.192Z,98451.19
2023-02-14T10:30:21.400Z,98458.38
2023-02-14T10:32:57.119Z,98458.34
2023-02-14T10:35:42.925Z,98446.44
2023-02-14T10:38:39.105Z,98447.22
2023-02-14T10:41:17.940Z,98428.09
2023-02-14T10:43:57.013Z,98434.47
2023-02-14T10:46:32.451Z,98426.91
2023-02-14T10:49:35.980Z,98428.50
2023-02-14T10:52:18.088Z,98437.66
2023-02-14T10:54:53.462Z,98429.69
2023-02-14T10:57:37.139Z,98435.66
2023-02-14T11:00:06.911Z,98428.91
2023-02-14T11:02:56.670Z,98425.69
2023-02-14T11:05:46.152Z,98436.44
2023-02-14T11:08:25.700Z,98430.47
2023-02-14T11:10:53.920Z,98421.72
2023-02-14T11:13:33.133Z,98417.69
2023-02-14T11:16:29.796Z,98415.28
2023-02-14T11:19:28.668Z,98411.34
2023-02-14T11:21:58.217Z,98414.94
2023-02-14T11:24:36.468Z,98417.34
2023-02-14T11:27:11.871Z,98413.34
2023-02-14T11:29:41.246Z,98407.41
2023-02-14T11:32:10.593Z,98402.22
2023-02-14T11:34:41.006Z,98407.38
2023-02-14T11:37:23.006Z,98406.59
2023-02-14T11:39:50.968Z,98400.22
2023-02-14T11:42:46.545Z,98399.00
2023-02-14T11:45:36.831Z,98396.22
2023-02-14T11:48:37.085Z,98394.22
2023-02-14T11:51:14.169Z,98391.84
2023-02-14T11:53:55.973Z,98385.09
2023-02-14T11:56:23.982Z,98386.66
2023-02-14T11:59:31.618Z,98385.06
2023-02-14T12:02:02.990Z,98371.53
2023-02-14T12:04:45.780Z,98377.09
2023-02-14T12:07:24.391Z,98374.69
2023-02-14T12:10:05.727Z,98374.69
2023-02-14T12:12:32.409Z,98377.88
2023-02-14T12:15:24.105Z,98363.53
2023-02-14T12:17:56.947Z,98365.16
2023-02-14T12:20:44.123Z,98372.28
2023-02-14T12:23:38.217Z,98369.53
2023-02-14T12:26:16.665Z,98361.19
2023-02-14T12:28:55.722Z,98363.19
2023-02-14T12:31:22.324Z,98362.34
2023-02-14T12:33:50.543Z,98356.78
2023-02-14T12:36:42.445Z,98359.59
2023-02-14T12:39:17.944Z,98345.66
2023-02-14T12:42:10.226Z,98350.81
2023-02-14T12:45:01.757Z,98326.56
2023-02-14T12:47:45.273Z,98352.44
2023-02-14T12:50:23.946Z,98348.44
2023-02-14T12:52:54.179Z,98335.69
2023-02-14T12:55:36.628Z,98336.09
2023-02-14T12:58:23.979Z,98318.19
2023-02-14T13:01:04.151Z,98323.00
2023-02-14T13:03:30.638Z,98331.75
2023-02-14T13:06:27.950Z,98321.81
2023-02-14T13:09:08.078Z,98315.03
2023-02-14T13:11:38.711Z,98323.00
2023-02-14T13:14:34.663Z,98317.44
2023-02-14T13:17:27.531Z,98315.44
2023-02-14T13:20:19.005Z,98323.81
2023-02-14T13:22:47.107Z,98329.41
2023-02-14T13:25:31.017Z,98327.38
2023-02-14T13:28:00.575Z,98320.22
2023-02-14T13:30:37.653Z,98321.41
2023-02-14T13:33:07.967Z,98315.44
2023-02-14T13:35:35.243Z,98323.00
2023-02-14T13:38:14.127Z,98329.78
2023-02-14T13:40:41.433Z,98332.56
2023-02-14T13:43:08.013Z,98323.81
2023-02-14T13:45:40.260Z,98336.16
2023-02-14T13:48:06.753Z,98329.41
2023-02-14T13:50:37.185Z,98305.88
2023-02-14T13:53:03.810Z,98331.75
2023-02-14T13:55:43.527Z,98329.38
2023-02-14T13:58:18.403Z,98324.56
2023-02-14T14:00:49.508Z,98319.03
2023-02-14T14:03:39.119Z,98322.22
2023-02-14T14:06:12.944Z,98306.25
2023-02-14T14:08:45.612Z,98311.03
2023-02-14T14:11:21.093Z,98320.22
2023-02-14T14:14:21.406Z,98310.25
2023-02-14T14:17:00.799Z,98313.44
2023-02-14T14:19:27.318Z,98321.38
2023-02-14T14:22:02.657Z,98301.50
2023-02-14T14:24:31.232Z,98323.00
2023-02-14T14:27:06.422Z,98324.19
2023-02-14T14:29:38.500Z,98323.78
2023-02-14T14:32:18.246Z,98323.75
2023-02-14T14:35:02.886Z,98324.16
2023-02-14T14:37:33.211Z,98331.31
2023-02-14T14:40:02.076Z,98317.38
2023-02-14T14:42:37.844Z,98326.94
2023-02-14T14:45:09.060Z,98326.53
2023-02-14T14:47:42.568Z,98328.53
2023-02-14T14:50:24.369Z,98331.34
2023-02-14T14:52:57.063Z,98317.00
2023-02-14T14:55:29.558Z,98329.75
2023-02-14T14:58:04.697Z,98316.59
2023-02-14T15:00:34.506Z,98335.31
2023-02-14T15:03:10.181Z,98332.16
2023-02-14T15:05:48.476Z,98326.16
2023-02-14T15:08:32.894Z,98319.00
2023-02-14T15:11:34.370Z,98318.22
2023-02-14T15:14:03.357Z,98310.25
2023-02-14T15:16:38.259Z,98306.25
2023-02-14T15:19:37.234Z,98309.44
2023-02-14T15:22:26.283Z,98305.47
2023-02-14T15:24:53.585Z,98318.19
2023-02-14T15:27:23.076Z,98319.00
2023-02-14T15:30:04.551Z,98316.19
2023-02-14T15:32:34.816Z,98322.97
2023-02-14T15:35:04.316Z,98328.53
2023-02-14T15:37:32.158Z,98327.75
2023-02-14T15:40:00.021Z,98319.81
2023-02-14T15:42:31.691Z,98322.19
2023-02-14T15:45:16.670Z,98320.56
2023-02-14T15:47:46.798Z,98318.59
2023-02-14T15:50:24.384Z,98318.59
2023-02-14T15:52:53.158Z,98326.16
2023-02-14T15:55:25.433Z,98324.97
2023-02-14T15:58:02.966Z,98330.91
2023-02-14T16:00:31.794Z,98321.00
2023-02-14T16:03:08.810Z,98326.13
2023-02-14T16:05:35.366Z,98335.31
2023-02-14T16:08:28.728Z,98334.09
2023-02-14T16:11:08.928Z,98334.09
2023-02-14T16:13:38.244Z,98336.47
2023-02-14T16:16:07.769Z,98341.28
2023-02-14T16:18:43.225Z,98344.47
2023-02-14T16:21:20.232Z,98345.22
2023-02-14T16:24:08.104Z,98346.81
2023-02-14T16:26:38.133Z,98357.19
2023-02-14T16:29:06.203Z,98352.00
2023-02-14T16:31:33.773Z,98340.06
2023-02-14T16:34:00.883Z,98353.97
2023-02-14T16:36:32.981Z,98363.53
2023-02-14T16:39:04.771Z,98359.94
2023-02-14T16:41:33.215Z,98355.56
2023-02-14T16:44:00.327Z,98366.69
2023-02-14T16:46:31.857Z,98366.31
2023-02-14T16:48:58.539Z,98366.75
2023-02-14T16:51:28.387Z,98369.13
2023-02-14T16:53:58.952Z,98362.34
2023-02-14T16:56:55.850Z,98372.28
2023-02-14T16:59:22.731Z,98357.97
2023-02-14T17:01:49.412Z,98375.88
2023-02-14T17:04:16.107Z,98381.06
2023-02-14T17:06:49.179Z,98366.28
2023-02-14T17:09:19.502Z,98378.25
2023-02-14T17:11:51.081Z,98372.28
2023-02-14T17:14:21.405Z,98381.81
2023-02-14T17:16:48.619Z,98379.03
2023-02-14T17:19:15.306Z,98386.22
2023-02-14T17:21:42.023Z,98378.25
2023-02-14T17:24:08.556Z,98388.22
2023-02-14T17:26:35.231Z,98376.69
2023-02-14T17:29:01.765Z,98377.06
2023-02-14T17:31:28.753Z,98377.06
2023-02-14T17:33:55.715Z,98381.03
2023-02-14T17:36:24.128Z,98376.22
2023-02-14T17:38:52.864Z,98377.84
2023-02-14T17:41:25.041Z,98375.47
2023-02-14T17:43:54.885Z,98371.50
2023-02-14T17:46:22.049Z,98371.50
2023-02-14T17:48:49.140Z,98366.72
2023-02-14T17:51:17.441Z,98364.31
2023-02-14T17:53:44.084Z,98371.50
2023-02-14T17:56:21.831Z,98364.69
2023-02-14T17:58:50.793Z,98373.88
2023-02-14T18:01:24.114Z,98371.50
2023-02-14T18:03:54.097Z,98375.44
2023-02-14T18:06:21.484Z,98377.03
2023-02-14T18:08:57.138Z,98371.84
2023-02-14T18:11:26.811Z,98376.22
2023-02-14T18:13:55.460Z,98366.66
2023-02-14T18:16:22.116Z,98369.47
2023-02-14T18:18:48.761Z,98356.31
2023-02-14T18:21:16.998Z,98370.63
2023-02-14T18:23:43.624Z,98349.16
2023-02-14T18:26:13.284Z,98365.91
2023-02-14T18:28:40.062Z,98346.78
2023-02-14T18:31:14.952Z,98359.53
2023-02-14T18:33:41.975Z,98363.94
2023-02-14T18:36:14.530Z,98362.31
2023-02-14T18:38:42.977Z,98349.56
2023-02-14T18:41:15.348Z,98363.47
2023-02-14T18:43:42.744Z,98364.69
2023-02-14T18:46:10.294Z,98364.25
2023-02-14T18:48:37.311Z,98367.03
2023-02-14T18:51:09.438Z,98360.28
2023-02-14T18:53:37.337Z,98369.84
2023-02-14T18:56:17.822Z,98362.66
2023-02-14T18:58:47.601Z,98370.56
2023-02-14T19:01:39.601Z,98356.66
2023-02-14T19:04:08.985Z,98365.03
2023-02-14T19:06:36.368Z,98357.88
2023-02-14T19:09:03.670Z,98356.25
2023-02-14T19:11:31.816Z,98355.50
2023-02-14T19:14:00.585Z,98360.25
2023-02-14T19:16:30.015Z,98353.88
2023-02-14T19:18:57.979Z,98356.25
2023-02-14T19:21:27.212Z,98353.88
2023-02-14T19:23:56.336Z,98364.59
2023-02-14T19:26:27.679Z,98349.88
2023-02-14T19:28:59.829Z,98347.09
2023-02-14T19:31:27.489Z,98350.66
2023-02-14T19:33:54.781Z,98353.88
2023-02-14T19:36:23.390Z,98353.88
2023-02-14T19:38:52.762Z,98358.59
2023-02-14T19:41:29.814Z,98353.00
2023-02-14T19:43:58.486Z,98359.31
2023-02-14T19:46:26.302Z,98363.31
2023-02-14T19:48:52.916Z,98362.13
2023-02-14T19:51:25.816Z,98370.50
2023-02-14T19:53:54.639Z,98372.88
2023-02-14T19:56:33.473Z,98368.13
2023-02-14T19:59:00.266Z,98375.28
2023-02-14T20:01:46.278Z,98372.91
2023-02-14T20:04:16.188Z,98367.34
2023-02-14T20:06:45.008Z,98373.66
2023-02-14T20:09:12.237Z,98375.28
2023-02-14T20:11:46.447Z,98377.63
2023-02-14T20:14:14.234Z,98382.41
2023-02-14T20:16:41.325Z,98381.59
2023-02-14T20:19:16.596Z,98386.78
2023-02-14T20:21:47.966Z,98382.41
2023-02-14T20:24:21.301Z,98372.06
2023-02-14T20:26:49.201Z,98385.59
2023-02-14T20:29:17.320Z,98390.34
2023-02-14T20:31:46.629Z,98381.16
2023-02-14T20:34:13.942Z,98394.25
2023-02-14T20:36:41.859Z,98391.06
2023-02-14T20:39:10.868Z,98398.19
2023-02-14T20:41:37.752Z,98394.25
2023-02-14T20:44:09.795Z,98391.81
2023-02-14T20:46:36.563Z,98402.41
2023-02-14T20:49:03.985Z,98396.50
2023-02-14T20:51:30.445Z,98388.56
2023-02-14T20:53:56.964Z,98383.81
2023-02-14T20:56:24.288Z,98395.75
2023-02-14T20:58:50.955Z,98391.00
2023-02-14T21:01:21.117Z,98392.91
2023-02-14T21:03:50.871Z,98379.75
2023-02-14T21:06:24.140Z,98387.00
2023-02-14T21:08:51.198Z,98394.13
2023-02-14T21:11:20.004Z,98390.94
2023-02-14T21:13:47.072Z,98378.13
2023-02-14T21:16:16.479Z,98391.22
2023-02-14T21:18:48.601Z,98393.25
2023-02-14T21:21:22.414Z,98390.06
2023-02-14T21:23:50.611Z,98386.47
2023-02-14T21:26:18.396Z,98386.88
2023-02-14T21:28:45.211Z,98394.00
2023-02-14T21:31:14.531Z,98389.97
2023-02-14T21:33:41.220Z,98394.72
2023-02-14T21:36:09.286Z,98381.13
2023-02-14T21:38:36.562Z,98385.81
2023-02-14T21:41:05.112Z,98384.66
2023-02-14T21:43:36.729Z,98392.91
2023-02-14T21:46:07.294Z,98394.38
2023-02-14T21:48:52.616Z,98403.19
2023-02-14T21:51:19.411Z,98374.53
2023-02-14T21:53:46.667Z,98379.69
2023-02-14T21:56:18.074Z,98385.22
2023-02-14T21:58:44.881Z,98402.19
2023-02-14T22:01:16.998Z,98417.63
2023-02-14T22:03:43.637Z,98407.22
2023-02-14T22:06:10.454Z,98398.81
2023-02-14T22:08:37.038Z,98412.38
2023-02-14T22:11:08.946Z,98409.94
2023-02-14T22:13:36.247Z,98410.72
2023-02-14T22:16:04.010Z,98415.34
2023-02-14T22:18:31.396Z,98411.44
2023-02-14T22:37:11.592Z,98389.00
2023-02-14T22:39:38.145Z,98397.25
2023-02-14T22:42:06.904Z,98406.91
2023-02-14T22:44:33.466Z,98402.78
2023-02-14T22:47:01.243Z,98405.56
2023-02-14T22:49:27.923Z,98405.25
2023-02-14T22:51:54.469Z,98402.03
2023-02-14T22:54:21.350Z,98402.78
2023-02-14T22:56:49.213Z,98405.91
2023-02-14T22:59:21.667Z,98414.50
2023-02-14T23:01:50.008Z,98418.38
2023-02-14T23:04:18.350Z,98420.78
2023-02-14T23:06:45.184Z,98423.94
2023-02-14T23:09:12.765Z,98438.91
2023-02-14T23:11:41.057Z,98440.63
2023-02-14T23:14:26.971Z,98437.44
2023-02-14T23:17:11.795Z,98427.94
2023-02-14T23:19:56.893Z,98418.97
2023-02-14T23:22:26.887Z,98441.41
2023-02-14T23:24:55.359Z,98439.78
2023-02-14T23:27:29.602Z,98438.22
2023-02-14T23:29:56.256Z,98419.94
2023-02-14T23:32:22.815Z,98433.59
2023-02-14T23:34:49.416Z,98435.81
2023-02-14T23:37:16.002Z,98434.97
2023-02-14T23:39:43.159Z,98434.53
2023-02-14T23:42:13.744Z,98436.56
2023-02-14T23:44:41.984Z,98442.91
2023-02-14T23:47:10.141Z,98429.88
2023-02-14T23:49:38.981Z,98437.78
2023-02-14T23:52:08.012Z,98436.56
2023-02-14T23:54:34.993Z,98422.25
2023-02-14T23:57:01.732Z,98431.06
2023-02-14T23:59:28.346Z,98433.53
